Time;durP1;ratioP1;P1;durP2;ratioP2;P2;SDS_P1;SDS_P2;PMS_P1;PMS_P2;Temp;Humidity;BMP_temperature;BMP_pressure;BME280_temperature;BME280_humidity;BME280_pressure;Samples;Min_cycle;Max_cycle;Signal;HPM_P1;HPM_P2
2022/10/02 00:01:53;;;;;;;;;;;15.30;80.50;;;-151.14;100.00;62537.16;4230267;33;20013;-86
2022/10/02 00:04:25;;;;;;;;;;;15.20;80.40;;;-151.14;100.00;62537.16;4208557;33;19918;-87
2022/10/02 00:06:55;;;;;;;;;;;15.30;80.40;;;14.36;100.00;62537.16;4208684;33;19902;-87
2022/10/02 00:09:29;;;;;;;;;;;15.30;80.40;;;14.36;100.00;62537.16;4231490;33;19902;-87
2022/10/02 00:12:00;;;;;;;;;;;15.30;80.50;;;-151.14;100.00;62537.16;4208578;33;19902;-86
2022/10/02 00:14:31;;;;;;;;;;;15.30;80.50;;;-151.14;100.00;62537.16;4208530;33;20238;-86
2022/10/02 00:17:00;;;;;;;;;;;15.20;80.30;;;14.36;100.00;62537.16;4208510;33;19934;-87
2022/10/02 00:19:29;;;;;;;;;;;15.20;80.40;;;-151.14;100.00;62537.16;4231290;33;19910;-87
2022/10/02 00:22:13;;;;;;;;;;;15.30;80.40;;;14.36;100.00;62537.16;4208721;33;20134;-87
2022/10/02 00:24:46;;;;;;;;;;;15.20;80.40;;;-151.14;100.00;62537.16;4231507;33;19902;-87
2022/10/02 00:27:31;;;;;;;;;;;15.20;80.40;;;-151.14;100.00;62537.16;4231833;33;19910;-87
2022/10/02 00:30:00;;;;;;;;;;;15.20;80.30;;;18.08;100.00;62537.16;4231614;33;20245;-87
2022/10/02 00:32:32;;;;;;;;;;;15.20;80.40;;;-151.14;100.00;62537.16;4208463;33;19929;-87
2022/10/02 00:35:32;;;;;;;;;;;15.30;80.40;;;14.37;100.00;62537.16;4231834;33;19902;-86
2022/10/02 00:38:05;;;;;;;;;;;15.30;80.40;;;14.36;100.00;62537.16;4207613;33;19902;-86
2022/10/02 00:40:42;;;;;;;;;;;15.30;80.50;;;-151.14;100.00;62537.16;4231670;33;20002;-87
2022/10/02 00:43:21;;;;;;;;;;;15.30;80.50;;;-151.14;100.00;62537.16;4231554;33;20004;-87
2022/10/02 00:46:21;;;;;;;;;;;15.20;80.40;;;14.37;100.00;62537.16;4208480;33;20241;-87
2022/10/02 00:49:07;;;;;;;;;;;15.20;80.40;;;14.36;100.00;62537.16;4196933;33;20298;-87
2022/10/02 00:51:45;;;;;;;;;;;15.30;80.50;;;-151.14;100.00;62537.16;4208358;33;19903;-87
2022/10/02 00:54:28;;;;;;;;;;;15.30;80.50;;;14.36;100.00;62537.16;4231497;33;20226;-87
2022/10/02 00:57:05;;;;;;;;;;;15.20;80.40;;;-151.14;100.00;62537.16;4208117;33;20007;-87
2022/10/02 00:59:50;;;;;;;;;;;15.20;80.40;;;-151.14;100.00;62537.16;4207656;33;19903;-86
2022/10/02 01:03:04;;;;;;;;;;;15.20;80.40;;;-151.14;100.00;62537.16;4231410;33;19917;-87
2022/10/02 01:05:33;;;;;;;;;;;15.20;80.30;;;-151.14;100.00;62537.16;4231364;33;19903;-86
2022/10/02 01:08:02;;;;;;;;;;;15.30;80.50;;;14.37;100.00;62537.16;4207515;33;19910;-86
2022/10/02 01:10:31;;;;;;;;;;;15.20;80.40;;;-151.14;100.00;62537.16;4231432;33;20130;-86
2022/10/02 01:12:59;;;;;;;;;;;15.20;80.30;;;14.35;100.00;62537.16;4207940;33;20003;-87
2022/10/02 01:15:35;;;;;;;;;;;15.20;80.30;;;14.37;100.00;62537.16;4231275;33;19910;-86
2022/10/02 01:18:04;;;;;;;;;;;15.20;80.30;;;14.36;100.00;62537.16;4207463;33;20130;-87
2022/10/02 01:20:36;;;;;;;;;;;15.20;80.30;;;-151.14;100.00;62537.16;4231173;33;19903;-86
2022/10/02 01:23:20;;;;;;;;;;;15.20;80.40;;;-151.14;100.00;62537.16;4231358;33;19994;-87
2022/10/02 01:25:50;;;;;;;;;;;15.30;80.40;;;-151.14;100.00;62537.16;4207803;33;20207;-86
2022/10/02 01:28:18;;;;;;;;;;;15.20;80.40;;;-151.14;100.00;62537.16;4207401;33;19936;-86
2022/10/02 01:30:50;;;;;;;;;;;15.20;80.40;;;14.36;100.00;62537.16;4186249;34;19904;-86
2022/10/02 01:33:18;;;;;;;;;;;15.20;80.40;;;-151.14;100.00;62537.16;4180328;34;20218;-87
2022/10/02 01:35:47;;;;;;;;;;;15.20;80.40;;;14.36;100.00;62537.16;4203152;34;20257;-86
2022/10/02 01:38:19;;;;;;;;;;;15.20;80.40;;;-151.14;100.00;62537.16;4179463;34;19910;-87
2022/10/02 01:40:48;;;;;;;;;;;15.20;80.40;;;187.61;100.00;62537.16;4203126;34;19910;-86
2022/10/02 01:43:22;;;;;;;;;;;15.20;80.40;;;-151.14;100.00;62537.16;4179789;34;23015;-86
2022/10/02 01:46:13;;;;;;;;;;;15.20;80.40;;;-151.14;100.00;62537.16;4179941;34;20215;-87
2022/10/02 01:48:46;;;;;;;;;;;15.20;80.40;;;14.35;100.00;62537.16;4202627;34;19918;-86
2022/10/02 01:51:49;;;;;;;;;;;15.20;80.50;;;-151.14;100.00;62537.16;4182530;34;19903;-87
2022/10/02 01:54:24;;;;;;;;;;;15.20;80.40;;;18.08;100.00;62537.16;4163743;34;20302;-87
2022/10/02 01:56:57;;;;;;;;;;;15.20;80.50;;;14.35;100.00;83092.88;4182567;34;19988;-86
2022/10/02 01:59:38;;;;;;;;;;;15.20;80.40;;;-151.14;100.00;62537.16;4181847;34;19903;-86
2022/10/02 02:02:13;;;;;;;;;;;15.20;80.40;;;14.36;100.00;62537.16;4182444;34;20350;-87
2022/10/02 02:04:46;;;;;;;;;;;15.20;80.40;;;-151.14;100.00;62537.16;4182395;34;19999;-86
2022/10/02 02:07:18;;;;;;;;;;;15.20;80.30;;;14.36;100.00;62537.16;4182327;34;20130;-86
2022/10/02 02:09:54;;;;;;;;;;;15.20;80.40;;;-151.14;100.00;62537.16;4181770;34;20008;-87
2022/10/02 02:12:24;;;;;;;;;;;15.20;80.40;;;14.35;100.00;62537.16;4182434;34;20010;-87
2022/10/02 02:15:01;;;;;;;;;;;15.20;80.40;;;14.35;100.00;62537.16;4182011;34;19989;-86
2022/10/02 02:17:32;;;;;;;;;;;15.20;80.40;;;14.35;100.00;62537.16;4204920;34;20221;-87
2022/10/02 02:20:03;;;;;;;;;;;15.20;80.40;;;14.35;100.00;62537.16;4184596;33;20004;-87
2022/10/02 02:22:33;;;;;;;;;;;15.20;80.40;;;14.35;100.00;62537.16;4233181;33;20314;-87
2022/10/02 02:25:04;;;;;;;;;;;15.20;80.40;;;14.34;100.00;62537.16;4209636;33;19903;-86
2022/10/02 02:27:35;;;;;;;;;;;15.20;80.30;;;14.35;100.00;62537.16;4209476;33;20317;-87
2022/10/02 02:30:10;;;;;;;;;;;15.20;80.30;;;14.34;100.00;62537.16;4232784;33;19910;-87
2022/10/02 02:32:41;;;;;;;;;;;15.20;80.30;;;-151.14;100.00;62537.16;4233099;33;19943;-86
2022/10/02 02:35:16;;;;;;;;;;;15.20;80.40;;;14.34;100.00;62537.16;4233063;33;19902;-87
2022/10/02 02:37:45;;;;;;;;;;;15.20;80.30;;;-151.14;100.00;62537.16;4233250;33;19910;-86
2022/10/02 02:40:16;;;;;;;;;;;15.20;80.40;;;14.35;100.00;62537.16;4272032;27;20132;-81
2022/10/02 02:42:49;;;;;;;;;;;15.20;80.40;;;-151.14;100.00;62537.16;4261042;33;19917;-82
2022/10/02 02:45:20;;;;;;;;;;;15.20;80.40;;;-151.14;100.00;62537.16;4260747;33;19986;-82
2022/10/02 02:47:51;;;;;;;;;;;15.20;80.40;;;187.61;100.00;62537.16;4259687;33;20167;-82
2022/10/02 02:50:22;;;;;;;;;;;15.20;80.40;;;15.43;100.00;62537.16;4235579;33;19925;-82
2022/10/02 02:52:53;;;;;;;;;;;15.20;80.40;;;-151.14;100.00;62537.16;4232817;33;19978;-82
2022/10/02 02:55:23;;;;;;;;;;;15.20;80.40;;;-151.14;100.00;62537.16;4232614;33;20010;-82
2022/10/02 02:57:55;;;;;;;;;;;15.20;80.40;;;-151.14;100.00;62537.16;4232109;33;19903;-82
2022/10/02 03:00:25;;;;;;;;;;;15.20;80.30;;;-151.14;100.00;62537.16;4209196;33;19909;-82
2022/10/02 03:02:54;;;;;;;;;;;15.20;80.30;;;-151.14;100.00;62537.16;4228091;33;19910;-82
2022/10/02 03:05:23;;;;;;;;;;;15.20;80.40;;;;;;4204575;34;19903;-82
2022/10/02 03:07:54;;;;;;;;;;;15.20;80.30;;;-151.14;100.00;62537.16;4231759;33;19909;-82
2022/10/02 03:10:35;;;;;;;;;;;15.20;80.30;;;-151.14;100.00;62537.16;4209243;33;20002;-82
2022/10/02 03:13:15;;;;;;;;;;;15.20;80.30;;;14.36;100.00;62537.16;4232668;33;20107;-82
2022/10/02 03:15:53;;;;;;;;;;;15.20;80.40;;;-151.14;100.00;62537.16;4232267;33;20149;-82
2022/10/02 03:18:47;;;;;;;;;;;15.20;80.40;;;14.34;100.00;62537.16;4232024;33;20153;-82
2022/10/02 03:21:17;;;;;;;;;;;15.20;80.40;;;-151.14;100.00;62537.16;4208982;33;19998;-82
2022/10/02 03:23:58;;;;;;;;;;;15.20;80.40;;;-151.14;100.00;62537.16;4209164;33;20003;-82
2022/10/02 03:26:33;;;;;;;;;;;15.20;80.40;;;-151.14;100.00;62537.16;4209014;33;20110;-82
2022/10/02 03:29:02;;;;;;;;;;;15.20;80.40;;;-151.14;100.00;62537.16;4208605;33;19925;-82
2022/10/02 03:31:32;;;;;;;;;;;15.20;80.40;;;-151.14;100.00;62537.16;4232299;33;19910;-82
2022/10/02 03:34:01;;;;;;;;;;;15.20;80.40;;;14.34;100.00;62537.16;4232331;33;19903;-82
2022/10/02 03:36:29;;;;;;;;;;;15.20;80.30;;;-151.14;100.00;62537.16;4208875;33;20129;-82
2022/10/02 03:39:01;;;;;;;;;;;15.20;81.20;;;14.36;100.00;62537.16;4231609;33;19991;-82
2022/10/02 03:41:29;;;;;;;;;;;15.20;80.40;;;-151.14;100.00;62537.16;4231977;33;20234;-82
2022/10/02 03:43:58;;;;;;;;;;;15.20;80.40;;;-151.14;100.00;62537.16;4208984;33;19903;-82
2022/10/02 03:46:26;;;;;;;;;;;15.20;80.30;;;14.35;100.00;62537.16;4208937;33;20003;-82
2022/10/02 03:48:56;;;;;;;;;;;15.20;80.50;;;-151.14;100.00;62537.16;4231688;33;20002;-82
2022/10/02 03:51:25;;;;;;;;;;;15.20;80.40;;;14.34;100.00;62537.16;4233004;33;19917;-82
2022/10/02 03:53:53;;;;;;;;;;;15.20;80.40;;;187.61;100.00;62537.16;4232093;33;19903;-82
2022/10/02 03:56:30;;;;;;;;;;;15.20;80.40;;;14.34;100.00;62537.16;4232002;33;19966;-82
2022/10/02 03:59:01;;;;;;;;;;;15.20;80.40;;;-151.14;100.00;62537.16;4180644;34;20253;-83
2022/10/02 04:01:33;;;;;;;;;;;15.20;80.40;;;14.34;100.00;62537.16;4203930;34;19903;-83
2022/10/02 04:04:06;;;;;;;;;;;15.20;80.40;;;-151.14;100.00;62537.16;4227308;33;19919;-83
2022/10/02 04:06:42;;;;;;;;;;;15.20;80.40;;;14.34;100.00;62537.16;4181089;34;19903;-83
2022/10/02 04:09:12;;;;;;;;;;;15.20;80.50;;;14.33;100.00;62537.16;4180445;34;20292;-83
2022/10/02 04:11:43;;;;;;;;;;;15.20;80.60;;;-151.14;100.00;62537.16;4180506;33;19955;-82
2022/10/02 04:14:15;;;;;;;;;;;15.20;80.70;;;-151.14;100.00;62537.16;4231700;33;19902;-82
2022/10/02 04:16:48;;;;;;;;;;;15.20;80.80;;;-151.14;100.00;62537.16;4232488;33;19902;-82
2022/10/02 04:19:21;;;;;;;;;;;15.20;80.80;;;-151.14;100.00;62537.16;4207730;33;20011;-82
2022/10/02 04:21:54;;;;;;;;;;;15.20;80.90;;;-151.14;100.00;62537.16;4208457;33;19902;-83
2022/10/02 04:24:29;;;;;;;;;;;15.20;80.90;;;-151.14;100.00;62537.16;4208546;33;20002;-82
2022/10/02 04:27:03;;;;;;;;;;;15.20;81.00;;;-151.14;100.00;62537.16;4232425;33;19910;-82
2022/10/02 04:29:36;;;;;;;;;;;15.20;80.90;;;-151.14;100.00;62537.16;4208003;33;19998;-82
2022/10/02 04:32:16;;;;;;;;;;;15.20;80.90;;;-151.14;100.00;62537.16;4232521;33;19903;-82
2022/10/02 04:34:45;;;;;;;;;;;15.20;81.10;;;-151.14;100.00;62537.16;4231568;33;19902;-82
2022/10/02 04:37:32;;;;;;;;;;;15.20;80.90;;;-151.14;100.00;62537.16;4231344;33;19938;-82
2022/10/02 04:40:18;;;;;;;;;;;15.20;81.10;;;-151.14;100.00;62537.16;4231328;33;19907;-82
2022/10/02 04:42:58;;;;;;;;;;;15.20;81.10;;;-151.14;100.00;62537.16;4208222;33;19903;-82
2022/10/02 04:45:39;;;;;;;;;;;15.20;80.90;;;-151.14;100.00;62537.16;4231603;33;20298;-82
2022/10/02 04:48:56;;;;;;;;;;;15.20;81.00;;;-151.14;100.00;62537.16;4231078;33;20233;-82
2022/10/02 04:51:41;;;;;;;;;;;15.20;81.10;;;-151.14;100.00;62537.16;4207904;33;19976;-82
2022/10/02 04:54:25;;;;;;;;;;;15.20;81.00;;;-151.14;100.00;62537.16;4207868;33;20160;-82
2022/10/02 04:57:05;;;;;;;;;;;15.20;81.00;;;-151.14;100.00;62537.16;4208019;33;19988;-82
2022/10/02 04:59:44;;;;;;;;;;;15.20;81.00;;;-151.14;100.00;62537.16;4230539;33;19903;-82
2022/10/02 05:02:25;;;;;;;;;;;15.20;80.90;;;-151.14;100.00;62537.16;4231285;33;19903;-82
2022/10/02 05:05:02;;;;;;;;;;;15.20;80.90;;;-151.14;100.00;62537.16;4231327;33;19910;-82
2022/10/02 05:07:46;;;;;;;;;;;15.20;81.10;;;-151.14;100.00;62537.16;4230630;33;19903;-82
2022/10/02 05:10:38;;;;;;;;;;;15.20;81.00;;;-151.14;100.00;62537.16;4180285;34;20007;-82
2022/10/02 05:13:18;;;;;;;;;;;15.20;81.00;;;-151.14;100.00;62537.16;4208404;33;19918;-82
2022/10/02 05:16:13;;;;;;;;;;;15.30;80.90;;;-151.14;100.00;62537.16;4231185;33;19902;-82
2022/10/02 05:18:59;;;;;;;;;;;15.30;80.80;;;-151.14;100.00;62537.16;4207241;33;19903;-82
2022/10/02 05:21:58;;;;;;;;;;;15.60;80.40;;;15.20;100.00;62537.16;4254834;33;20229;-82
2022/10/02 05:24:40;;;;;;;;;;;16.00;79.00;;;15.50;100.00;62537.16;4206718;33;20244;-82
2022/10/02 05:27:33;;;;;;;;;;;16.40;77.10;;;-151.14;100.00;62537.16;4231068;33;20125;-82
2022/10/02 05:30:08;;;;;;;;;;;16.80;75.40;;;-151.14;100.00;62537.16;4207761;33;19903;-82
2022/10/02 05:33:22;;;;;;;;;;;17.20;73.80;;;-151.14;100.00;62537.16;4231075;33;20226;-82
2022/10/02 05:36:25;;;;;;;;;;;17.40;72.20;;;18.08;100.00;62537.16;4174620;34;20004;-82
2022/10/02 05:39:02;;;;;;;;;;;17.50;71.90;;;16.07;100.00;62537.16;4179304;34;20322;-82
2022/10/02 05:41:42;;;;;;;;;;;17.40;71.30;;;16.07;100.00;62537.16;4204043;34;20266;-82
2022/10/02 05:44:16;;;;;;;;;;;17.20;71.70;;;-151.14;100.00;62537.16;4203012;34;19926;-82
2022/10/02 05:46:49;;;;;;;;;;;17.00;72.70;;;-151.14;100.00;62537.16;4203986;34;19904;-82
2022/10/02 05:49:19;;;;;;;;;;;16.70;73.60;;;-151.14;100.00;62537.16;4203257;34;20011;-82
2022/10/02 05:51:54;;;;;;;;;;;16.50;74.60;;;-151.14;100.00;62537.16;4202925;34;19999;-82
2022/10/02 05:54:32;;;;;;;;;;;16.30;75.40;;;15.17;100.00;62537.16;4203739;34;19903;-82
2022/10/02 05:57:05;;;;;;;;;;;16.20;76.10;;;-151.14;100.00;62537.16;4179744;34;19903;-82
2022/10/02 05:59:40;;;;;;;;;;;16.10;76.70;;;-151.14;100.00;62537.16;4203172;34;19926;-83
2022/10/02 06:02:19;;;;;;;;;;;16.00;77.20;;;14.89;100.00;62537.16;4179836;34;19903;-82
2022/10/02 06:04:54;;;;;;;;;;;15.90;77.60;;;-151.14;100.00;62537.16;4217788;33;19934;-82
2022/10/02 06:07:24;;;;;;;;;;;15.80;77.90;;;-151.14;100.00;62537.16;4207229;33;19903;-82
2022/10/02 06:09:56;;;;;;;;;;;15.70;78.20;;;-151.14;100.00;62537.16;4230249;33;19903;-81
2022/10/02 06:12:29;;;;;;;;;;;15.60;78.50;;;-151.14;100.00;62537.16;4231647;33;19903;-82
2022/10/02 06:15:01;;;;;;;;;;;15.60;78.70;;;-151.14;100.00;62537.16;4230442;33;19904;-82
2022/10/02 06:17:31;;;;;;;;;;;15.60;79.00;;;-151.14;100.00;62537.16;4230049;33;20141;-82
2022/10/02 06:20:03;;;;;;;;;;;15.50;79.10;;;-151.14;100.00;62537.16;4206998;33;19910;-82
2022/10/02 06:22:34;;;;;;;;;;;15.50;79.30;;;-151.14;100.00;62537.16;4230268;33;20018;-82
2022/10/02 06:25:06;;;;;;;;;;;15.50;79.50;;;-151.14;100.00;62537.16;4230490;33;20003;-82
2022/10/02 06:27:39;;;;;;;;;;;15.40;79.50;;;187.61;100.00;62537.16;4206897;33;19902;-82
2022/10/02 06:30:10;;;;;;;;;;;15.40;79.60;;;-151.14;100.00;62537.16;4230487;33;20320;-82
2022/10/02 06:32:42;;;;;;;;;;;15.40;79.70;;;-151.14;100.00;62537.16;4207263;33;19940;-82
2022/10/02 06:35:12;;;;;;;;;;;15.40;79.80;;;187.61;100.00;62537.16;4207443;33;19910;-82
2022/10/02 06:37:55;;;;;;;;;;;15.40;79.80;;;-151.14;100.00;62537.16;4232505;33;20125;-82
2022/10/02 06:40:49;;;;;;;;;;;15.40;79.90;;;-151.14;100.00;62537.16;4232764;33;20300;-82
2022/10/02 06:43:55;;;;;;;;;;;15.30;80.00;;;187.61;100.00;62537.16;4227303;33;19902;-82
2022/10/02 06:46:31;;;;;;;;;;;15.30;80.00;;;-151.14;100.00;62537.16;4233794;33;19909;-82
2022/10/02 06:49:04;;;;;;;;;;;15.30;80.10;;;-151.14;100.00;62537.16;4208848;33;20027;-82
2022/10/02 06:51:40;;;;;;;;;;;15.30;80.10;;;-151.14;100.00;62537.16;4232831;33;19910;-82
2022/10/02 06:54:20;;;;;;;;;;;15.30;80.10;;;-151.14;100.00;62537.16;4232600;33;19922;-82
2022/10/02 06:57:08;;;;;;;;;;;15.30;80.10;;;-151.14;100.00;62537.16;4209468;33;20021;-82
2022/10/02 07:00:01;;;;;;;;;;;15.30;80.20;;;-151.14;100.00;62537.16;4208624;33;19974;-82
2022/10/02 07:02:58;;;;;;;;;;;15.30;80.30;;;187.61;100.00;62537.16;4233573;33;19974;-82
2022/10/02 07:05:53;;;;;;;;;;;15.30;80.30;;;-151.14;100.00;62537.16;4187142;33;19903;-82
2022/10/02 07:08:30;;;;;;;;;;;15.30;80.30;;;-151.14;100.00;62537.16;4231985;33;19903;-82
2022/10/02 07:11:02;;;;;;;;;;;15.30;80.30;;;-151.14;100.00;62537.16;4209310;33;20214;-82
2022/10/02 07:13:41;;;;;;;;;;;15.30;80.30;;;-151.14;100.00;62537.16;4232594;33;19903;-82
2022/10/02 07:16:31;;;;;;;;;;;15.30;80.30;;;-151.14;100.00;62537.16;4232540;33;19902;-82
2022/10/02 07:19:41;;;;;;;;;;;15.30;80.30;;;-151.14;100.00;62537.16;4231903;33;19984;-82
2022/10/02 07:22:30;;;;;;;;;;;15.30;80.30;;;187.61;100.00;62537.16;4182745;33;19903;-82
2022/10/02 07:25:14;;;;;;;;;;;15.30;80.20;;;-151.14;100.00;62537.16;4233313;33;20344;-82
2022/10/02 07:27:47;;;;;;;;;;;15.30;80.20;;;187.61;100.00;62537.16;4208735;33;19903;-82
2022/10/02 07:30:17;;;;;;;;;;;15.30;80.30;;;-151.14;100.00;62537.16;4233214;33;19903;-82
2022/10/02 07:32:51;;;;;;;;;;;15.30;80.20;;;-151.14;100.00;62537.16;4208979;33;20009;-82
2022/10/02 07:35:35;;;;;;;;;;;15.30;80.20;;;-151.14;100.00;62537.16;4208789;33;19910;-82
2022/10/02 07:38:41;;;;;;;;;;;15.30;80.10;;;-151.14;100.00;62537.16;4231721;33;19905;-82
2022/10/02 07:42:12;;;;;;;;;;;15.30;80.20;;;-151.14;100.00;62537.16;4232227;33;19903;-82
2022/10/02 07:45:31;;;;;;;;;;;15.30;80.20;;;-151.14;100.00;62537.16;4182189;33;19966;-81
2022/10/02 07:48:28;;;;;;;;;;;15.30;80.20;;;-151.14;100.00;62537.16;4199172;33;19903;-82
2022/10/02 07:54:16;;;;;;;;;;;15.30;80.20;;;-151.14;100.00;62537.16;4231893;33;19910;-82
2022/10/02 07:56:45;;;;;;;;;;;15.30;80.10;;;-151.14;100.00;62537.16;4232857;33;19916;-82
2022/10/02 07:59:15;;;;;;;;;;;15.30;80.10;;;-151.14;100.00;62537.16;4231659;33;19911;-82
2022/10/02 08:01:44;;;;;;;;;;;15.30;80.00;;;-151.14;100.00;62537.16;4232827;33;19902;-82
2022/10/02 08:04:17;;;;;;;;;;;15.30;80.00;;;-151.14;100.00;62537.16;4208629;33;19910;-82
2022/10/02 08:06:47;;;;;;;;;;;15.30;80.00;;;-151.14;100.00;62537.16;4232745;33;19958;-82
2022/10/02 08:09:17;;;;;;;;;;;15.30;79.80;;;187.61;100.00;62537.16;4231051;33;20134;-82
2022/10/02 08:11:49;;;;;;;;;;;15.30;79.80;;;-151.14;100.00;62537.16;4231968;33;19904;-82
2022/10/02 08:14:21;;;;;;;;;;;15.40;79.80;;;-151.14;100.00;62537.16;4231768;33;19903;-82
2022/10/02 08:16:51;;;;;;;;;;;15.30;79.80;;;-151.14;100.00;62537.16;4208657;33;19999;-82
2022/10/02 08:19:25;;;;;;;;;;;15.30;79.80;;;-151.14;100.00;62537.16;4231214;33;20026;-82
2022/10/02 08:21:57;;;;;;;;;;;15.30;79.80;;;-151.14;100.00;62537.16;4208529;33;20011;-82
2022/10/02 08:24:29;;;;;;;;;;;15.30;79.80;;;-151.14;100.00;62537.16;4208526;33;20217;-82
2022/10/02 08:27:00;;;;;;;;;;;15.30;79.80;;;-151.14;100.00;62537.16;4231922;33;19902;-82
2022/10/02 08:29:34;;;;;;;;;;;15.30;79.90;;;15.43;100.00;62537.16;4231078;33;19902;-82
2022/10/02 08:32:05;;;;;;;;;;;15.30;79.80;;;187.61;100.00;62537.16;4208476;33;19903;-82
2022/10/02 08:34:35;;;;;;;;;;;15.30;79.80;;;-151.14;100.00;62537.16;4231561;33;20018;-82
2022/10/02 08:37:16;;;;;;;;;;;15.40;79.80;;;14.48;100.00;62537.16;4208407;33;20225;-82
2022/10/02 08:40:50;;;;;;;;;;;15.40;79.70;;;14.48;100.00;62537.16;4219165;28;19903;-86
2022/10/02 08:44:06;;;;;;;;;;;15.40;79.60;;;14.48;100.00;62537.16;4121387;34;20022;-86
2022/10/02 08:47:07;;;;;;;;;;;15.40;79.50;;;-151.14;100.00;62537.16;4077270;34;19908;-86
2022/10/02 08:50:31;;;;;;;;;;;15.40;79.40;;;-151.14;100.00;62537.16;4190972;34;19903;-86
2022/10/02 08:53:53;;;;;;;;;;;15.40;79.40;;;14.54;100.00;62537.16;4176006;34;19924;-86
2022/10/02 08:56:32;;;;;;;;;;;15.40;79.40;;;14.54;100.00;96087.91;4199036;34;20146;-86
2022/10/02 08:59:53;;;;;;;;;;;15.40;79.40;;;-151.14;100.00;62537.16;4175010;34;19914;-86
2022/10/02 09:03:11;;;;;;;;;;;15.40;79.30;;;-151.14;100.00;62537.16;4153318;34;19904;-86
2022/10/02 09:06:46;;;;;;;;;;;15.40;79.40;;;14.54;100.00;62537.16;4198982;34;19904;-86
2022/10/02 09:09:58;;;;;;;;;;;15.40;79.30;;;-151.14;100.00;62537.16;4108961;34;19904;-86
2022/10/02 09:13:02;;;;;;;;;;;15.40;79.40;;;187.61;100.00;62537.16;4096245;34;20358;-86
2022/10/02 09:15:43;;;;;;;;;;;15.40;79.40;;;-151.14;100.00;62537.16;4148368;34;20011;-86
2022/10/02 09:18:25;;;;;;;;;;;15.40;79.50;;;14.49;100.00;62537.16;4170618;34;19904;-86
2022/10/02 09:21:18;;;;;;;;;;;15.40;79.50;;;14.49;100.00;62537.16;4148216;34;19904;-86
2022/10/02 09:24:45;;;;;;;;;;;15.40;79.60;;;-151.14;100.00;62537.16;4129863;34;19904;-86
2022/10/02 09:28:06;;;;;;;;;;;15.40;79.60;;;-151.14;100.00;62537.16;4094286;34;19905;-86
2022/10/02 09:31:13;;;;;;;;;;;15.40;79.60;;;-151.14;100.00;62537.16;4148203;34;20344;-86
2022/10/02 09:34:24;;;;;;;;;;;15.40;79.50;;;-151.14;100.00;62537.16;4148365;34;19928;-86
2022/10/02 09:37:27;;;;;;;;;;;15.40;79.40;;;-151.14;100.00;62537.16;4091058;34;19904;-87
2022/10/02 09:40:43;;;;;;;;;;;15.40;79.50;;;-151.14;100.00;62537.16;4148092;34;20135;-86
2022/10/02 09:43:35;;;;;;;;;;;15.40;79.40;;;-151.14;100.00;62537.16;4125829;34;19925;-86
2022/10/02 09:46:29;;;;;;;;;;;15.40;79.40;;;-151.14;100.00;62537.16;4125830;34;20036;-86
2022/10/02 09:49:31;;;;;;;;;;;15.40;79.40;;;-151.14;100.00;62537.16;4147767;34;19912;-86
2022/10/02 09:52:29;;;;;;;;;;;15.40;79.40;;;-151.14;100.00;62537.16;4167958;34;19904;-85
2022/10/02 09:55:56;;;;;;;;;;;15.40;79.40;;;-151.14;100.00;62537.16;4125754;34;19904;-87
2022/10/02 09:59:02;;;;;;;;;;;15.40;79.40;;;-151.14;100.00;62537.16;4116575;34;20122;-86
2022/10/02 10:01:54;;;;;;;;;;;15.40;79.30;;;-151.14;100.00;62537.16;4170644;34;19905;-86
2022/10/02 10:04:58;;;;;;;;;;;15.40;79.30;;;-151.14;100.00;62537.16;4170984;34;19908;-86
2022/10/02 10:08:16;;;;;;;;;;;15.40;79.20;;;-151.14;100.00;62537.16;4146223;34;20024;-87
2022/10/02 10:11:30;;;;;;;;;;;15.40;79.10;;;-151.14;100.00;62537.16;4171669;34;19904;-86
2022/10/02 10:14:44;;;;;;;;;;;15.40;79.10;;;-151.14;100.00;62537.16;4142601;34;20009;-86
2022/10/02 10:18:09;;;;;;;;;;;15.40;79.20;;;-151.14;100.00;62537.16;4146885;34;19904;-86
2022/10/02 10:21:05;;;;;;;;;;;15.40;79.20;;;-151.14;100.00;62537.16;4172372;34;20006;-85
2022/10/02 10:24:15;;;;;;;;;;;15.40;79.30;;;-151.14;100.00;62537.16;4172882;34;19904;-86
2022/10/02 10:27:03;;;;;;;;;;;15.40;79.30;;;-151.14;100.00;62537.16;4108373;34;20009;-86
2022/10/02 10:30:22;;;;;;;;;;;15.40;79.20;;;-151.14;100.00;62537.16;4149713;34;19952;-86
2022/10/02 10:33:49;;;;;;;;;;;15.40;79.20;;;-151.14;100.00;62537.16;4038702;34;19996;-86
2022/10/02 10:40:09;;;;;;;;;;;15.40;79.10;;;-151.14;100.00;62537.16;4172162;34;20010;-86
2022/10/02 10:42:54;;;;;;;;;;;15.40;79.10;;;-151.14;100.00;62537.16;4172649;34;19955;-86
2022/10/02 10:45:35;;;;;;;;;;;15.40;79.20;;;-151.14;100.00;62537.16;4172845;34;19915;-86
2022/10/02 10:48:26;;;;;;;;;;;15.40;79.20;;;-151.14;100.00;62537.16;4149604;34;20006;-86
2022/10/02 10:51:00;;;;;;;;;;;15.40;79.10;;;-151.14;100.00;62537.16;4172580;34;19904;-86
2022/10/02 10:53:47;;;;;;;;;;;15.40;79.10;;;-151.14;100.00;62537.16;4149974;34;20214;-86
2022/10/02 10:56:38;;;;;;;;;;;15.40;79.00;;;-151.14;100.00;62537.16;4149803;34;20248;-86
2022/10/02 10:59:44;;;;;;;;;;;15.40;79.00;;;-151.14;100.00;62537.16;4149381;34;19904;-86
2022/10/02 11:02:38;;;;;;;;;;;15.40;79.20;;;-151.14;100.00;62537.16;4144065;34;19982;-86
2022/10/02 11:06:06;;;;;;;;;;;15.40;79.00;;;-151.14;100.00;62537.16;4172662;34;19954;-86
2022/10/02 11:08:57;;;;;;;;;;;15.40;79.00;;;-151.14;100.00;62537.16;4149307;34;19904;-86
2022/10/02 11:11:30;;;;;;;;;;;15.50;78.90;;;-151.14;100.00;62537.16;4149686;34;20262;-85
2022/10/02 11:14:13;;;;;;;;;;;15.50;78.90;;;-151.14;100.00;62537.16;4149744;34;19911;-86
2022/10/02 11:17:09;;;;;;;;;;;15.50;78.80;;;-151.14;100.00;62537.16;4149766;34;19983;-86
2022/10/02 11:19:55;;;;;;;;;;;15.50;78.80;;;-151.14;100.00;62537.16;4126766;34;19911;-86
2022/10/02 11:23:11;;;;;;;;;;;15.50;78.80;;;-151.14;100.00;62537.16;4171381;34;19919;-86
2022/10/02 11:26:26;;;;;;;;;;;15.50;78.80;;;-151.14;100.00;62537.16;4095512;34;19905;-86
2022/10/02 11:29:44;;;;;;;;;;;15.50;78.80;;;-151.14;100.00;62537.16;4126975;34;20018;-86
2022/10/02 11:32:45;;;;;;;;;;;15.40;78.70;;;15.43;100.00;62537.16;4154191;34;19903;-87
2022/10/02 11:35:23;;;;;;;;;;;15.40;78.80;;;18.08;100.00;62537.16;4176344;34;19904;-86
2022/10/02 11:38:25;;;;;;;;;;;15.40;79.00;;;-151.14;100.00;62537.16;4176207;34;20008;-86
2022/10/02 11:41:14;;;;;;;;;;;15.40;79.10;;;14.48;100.00;83111.31;4151296;34;19993;-86
2022/10/02 11:44:09;;;;;;;;;;;15.40;79.20;;;187.61;100.00;62537.16;4137806;34;19941;-86
2022/10/02 11:47:08;;;;;;;;;;;15.40;79.30;;;14.60;100.00;62537.16;4126927;34;20056;-86
2022/10/02 11:50:40;;;;;;;;;;;15.30;79.30;;;-151.14;100.00;62537.16;4148907;34;19904;-86
2022/10/02 11:53:45;;;;;;;;;;;15.30;79.30;;;-151.14;100.00;62537.16;4149362;34;20219;-86
2022/10/02 11:56:35;;;;;;;;;;;15.30;79.40;;;-151.14;100.00;62537.16;4149256;34;20320;-87
2022/10/02 11:59:23;;;;;;;;;;;15.30;79.40;;;-151.14;100.00;62537.16;4126575;34;19911;-86
2022/10/02 12:01:54;;;;;;;;;;;15.30;79.50;;;-151.14;100.00;62537.16;4149173;34;19910;-87
2022/10/02 12:04:33;;;;;;;;;;;15.30;79.40;;;187.61;100.00;62537.16;4171953;34;19904;-86
2022/10/02 12:07:14;;;;;;;;;;;15.30;79.40;;;-151.14;100.00;62537.16;4149107;34;20029;-86
2022/10/02 12:09:53;;;;;;;;;;;15.40;79.40;;;-151.14;100.00;62537.16;4148793;34;20275;-85
2022/10/02 12:12:33;;;;;;;;;;;15.40;79.30;;;-151.14;100.00;62537.16;4172001;34;19911;-85
2022/10/02 12:15:05;;;;;;;;;;;15.40;79.30;;;-151.14;100.00;62537.16;4150007;34;19904;-86
2022/10/02 12:18:05;;;;;;;;;;;15.40;79.30;;;-151.14;100.00;62537.16;4148662;34;20001;-86
2022/10/02 12:27:08;;;;;;;;;;;15.40;79.30;;;14.46;100.00;62537.16;4149001;34;19904;-86